sensor_id;sensor_type;location;lat;lon;timestamp;temperature;humidity
12460;DHT22;6295;49.452;8.466;2023-09-30T06:14:48;15.80;99.90
12460;DHT22;6295;49.452;8.466;2023-09-30T06:18:50;15.80;99.90
12460;DHT22;6295;49.452;8.466;2023-09-30T06:22:52;15.80;99.90
12460;DHT22;6295;49.452;8.466;2023-09-30T06:26:55;15.80;99.90
12460;DHT22;6295;49.452;8.466;2023-09-30T06:30:59;15.80;99.90
12460;DHT22;6295;49.452;8.466;2023-09-30T06:35:02;15.90;99.90
12460;DHT22;6295;49.452;8.466;2023-09-30T06:39:04;15.90;99.90
12460;DHT22;6295;49.452;8.466;2023-09-30T06:43:07;16.00;99.90
12460;DHT22;6295;49.452;8.466;2023-09-30T06:47:11;16.00;99.90
12460;DHT22;6295;49.452;8.466;2023-09-30T06:51:15;16.10;99.90
12460;DHT22;6295;49.452;8.466;2023-09-30T06:55:20;16.10;99.90
12460;DHT22;6295;49.452;8.466;2023-09-30T06:59:25;16.20;99.90
12460;DHT22;6295;49.452;8.466;2023-09-30T07:03:29;16.20;99.90
12460;DHT22;6295;49.452;8.466;2023-09-30T07:07:33;16.30;99.90
12460;DHT22;6295;49.452;8.466;2023-09-30T07:11:35;16.30;99.90
12460;DHT22;6295;49.452;8.466;2023-09-30T07:15:38;16.30;99.90
12460;DHT22;6295;49.452;8.466;2023-09-30T07:19:41;16.40;99.90
12460;DHT22;6295;49.452;8.466;2023-09-30T07:27:48;16.50;99.90
12460;DHT22;6295;49.452;8.466;2023-09-30T07:31:51;16.50;99.90
12460;DHT22;6295;49.452;8.466;2023-09-30T07:35:55;16.70;99.90
12460;DHT22;6295;49.452;8.466;2023-09-30T07:39:57;16.70;99.90
12460;DHT22;6295;49.452;8.466;2023-09-30T07:44:00;16.70;99.90
12460;DHT22;6295;49.452;8.466;2023-09-30T07:48:04;16.70;99.90
12460;DHT22;6295;49.452;8.466;2023-09-30T07:52:08;16.80;99.90
12460;DHT22;6295;49.452;8.466;2023-09-30T07:56:10;16.80;99.90
12460;DHT22;6295;49.452;8.466;2023-09-30T08:00:13;16.90;99.90
12460;DHT22;6295;49.452;8.466;2023-09-30T08:04:18;16.90;99.90
12460;DHT22;6295;49.452;8.466;2023-09-30T08:08:27;17.00;99.90
12460;DHT22;6295;49.452;8.466;2023-09-30T08:12:34;17.00;99.90
12460;DHT22;6295;49.452;8.466;2023-09-30T08:16:38;17.20;99.90
12460;DHT22;6295;49.452;8.466;2023-09-30T08:20:41;17.30;99.90
12460;DHT22;6295;49.452;8.466;2023-09-30T08:24:44;17.30;99.90
12460;DHT22;6295;49.452;8.466;2023-09-30T08:28:46;17.30;99.90
12460;DHT22;6295;49.452;8.466;2023-09-30T08:32:50;17.40;99.90
12460;DHT22;6295;49.452;8.466;2023-09-30T08:36:53;17.40;99.90
12460;DHT22;6295;49.452;8.466;2023-09-30T08:40:56;17.50;99.90
12460;DHT22;6295;49.452;8.466;2023-09-30T08:44:59;17.60;99.90
12460;DHT22;6295;49.452;8.466;2023-09-30T08:49:02;17.70;99.90
12460;DHT22;6295;49.452;8.466;2023-09-30T08:53:05;17.70;99.90
12460;DHT22;6295;49.452;8.466;2023-09-30T08:57:11;17.80;99.90
12460;DHT22;6295;49.452;8.466;2023-09-30T09:01:15;17.80;99.90
12460;DHT22;6295;49.452;8.466;2023-09-30T09:05:19;17.90;99.90
12460;DHT22;6295;49.452;8.466;2023-09-30T09:09:21;17.90;99.90
12460;DHT22;6295;49.452;8.466;2023-09-30T09:13:27;17.90;99.90
12460;DHT22;6295;49.452;8.466;2023-09-30T09:17:42;18.00;99.90
12460;DHT22;6295;49.452;8.466;2023-09-30T09:21:54;18.10;99.90
12460;DHT22;6295;49.452;8.466;2023-09-30T09:25:57;18.20;99.90
12460;DHT22;6295;49.452;8.466;2023-09-30T09:30:14;18.20;99.90
12460;DHT22;6295;49.452;8.466;2023-09-30T09:34:16;18.40;99.90
12460;DHT22;6295;49.452;8.466;2023-09-30T09:38:19;18.50;99.90
12460;DHT22;6295;49.452;8.466;2023-09-30T09:42:25;18.50;99.90
12460;DHT22;6295;49.452;8.466;2023-09-30T09:46:31;18.60;99.90
12460;DHT22;6295;49.452;8.466;2023-09-30T09:50:36;18.70;99.90
12460;DHT22;6295;49.452;8.466;2023-09-30T09:54:43;18.80;99.90
12460;DHT22;6295;49.452;8.466;2023-09-30T09:58:49;18.90;99.90
12460;DHT22;6295;49.452;8.466;2023-09-30T10:02:55;18.90;99.90
12460;DHT22;6295;49.452;8.466;2023-09-30T10:06:57;18.90;99.90
12460;DHT22;6295;49.452;8.466;2023-09-30T10:11:01;18.90;99.90
12460;DHT22;6295;49.452;8.466;2023-09-30T10:15:36;18.90;99.90
12460;DHT22;6295;49.452;8.466;2023-09-30T10:20:06;18.90;99.90
12460;DHT22;6295;49.452;8.466;2023-09-30T10:24:29;19.00;99.90
12460;DHT22;6295;49.452;8.466;2023-09-30T10:28:38;19.20;99.90
12460;DHT22;6295;49.452;8.466;2023-09-30T10:33:09;19.40;99.90
12460;DHT22;6295;49.452;8.466;2023-09-30T10:37:23;19.50;99.90
12460;DHT22;6295;49.452;8.466;2023-09-30T10:41:52;19.50;99.90
12460;DHT22;6295;49.452;8.466;2023-09-30T10:45:55;19.50;99.90
12460;DHT22;6295;49.452;8.466;2023-09-30T10:49:57;19.50;99.90
12460;DHT22;6295;49.452;8.466;2023-09-30T10:54:01;19.50;99.90
12460;DHT22;6295;49.452;8.466;2023-09-30T10:58:04;19.50;99.90
12460;DHT22;6295;49.452;8.466;2023-09-30T11:02:18;19.60;99.90
12460;DHT22;6295;49.452;8.466;2023-09-30T11:06:21;19.60;99.90
12460;DHT22;6295;49.452;8.466;2023-09-30T11:10:25;19.80;99.90
12460;DHT22;6295;49.452;8.466;2023-09-30T11:14:29;19.80;99.90
12460;DHT22;6295;49.452;8.466;2023-09-30T11:18:32;20.00;99.90
12460;DHT22;6295;49.452;8.466;2023-09-30T11:22:35;20.00;99.90
12460;DHT22;6295;49.452;8.466;2023-09-30T11:26:39;19.90;99.90
12460;DHT22;6295;49.452;8.466;2023-09-30T11:30:57;19.90;99.90
12460;DHT22;6295;49.452;8.466;2023-09-30T11:35:00;19.90;99.90
12460;DHT22;6295;49.452;8.466;2023-09-30T11:39:03;19.90;99.90
12460;DHT22;6295;49.452;8.466;2023-09-30T11:43:10;20.00;99.90
12460;DHT22;6295;49.452;8.466;2023-09-30T11:47:13;20.10;99.90
12460;DHT22;6295;49.452;8.466;2023-09-30T11:51:16;20.20;99.90
12460;DHT22;6295;49.452;8.466;2023-09-30T11:55:19;20.20;99.90
12460;DHT22;6295;49.452;8.466;2023-09-30T11:59:24;20.20;99.90
12460;DHT22;6295;49.452;8.466;2023-09-30T12:03:26;20.30;99.90
12460;DHT22;6295;49.452;8.466;2023-09-30T12:07:29;20.30;99.90
12460;DHT22;6295;49.452;8.466;2023-09-30T12:11:31;20.40;99.90
12460;DHT22;6295;49.452;8.466;2023-09-30T12:15:35;20.50;99.90
12460;DHT22;6295;49.452;8.466;2023-09-30T12:19:37;20.60;99.90
12460;DHT22;6295;49.452;8.466;2023-09-30T12:23:40;20.60;99.90
12460;DHT22;6295;49.452;8.466;2023-09-30T12:27:43;20.70;99.90
12460;DHT22;6295;49.452;8.466;2023-09-30T12:31:51;20.70;99.90
12460;DHT22;6295;49.452;8.466;2023-09-30T12:39:57;20.80;99.90
12460;DHT22;6295;49.452;8.466;2023-09-30T12:43:59;20.80;99.90
12460;DHT22;6295;49.452;8.466;2023-09-30T12:48:04;20.80;99.90
12460;DHT22;6295;49.452;8.466;2023-09-30T12:52:06;20.80;99.90
12460;DHT22;6295;49.452;8.466;2023-09-30T12:56:08;20.90;99.90
12460;DHT22;6295;49.452;8.466;2023-09-30T13:00:11;20.80;99.90
12460;DHT22;6295;49.452;8.466;2023-09-30T13:04:17;20.80;99.90
12460;DHT22;6295;49.452;8.466;2023-09-30T13:08:20;20.70;99.90
12460;DHT22;6295;49.452;8.466;2023-09-30T13:12:22;20.70;99.90
12460;DHT22;6295;49.452;8.466;2023-09-30T13:16:24;20.70;99.90
12460;DHT22;6295;49.452;8.466;2023-09-30T13:20:28;20.80;99.90
12460;DHT22;6295;49.452;8.466;2023-09-30T13:24:30;20.80;99.90
12460;DHT22;6295;49.452;8.466;2023-09-30T13:28:33;20.90;99.90
12460;DHT22;6295;49.452;8.466;2023-09-30T13:32:35;20.90;99.90
12460;DHT22;6295;49.452;8.466;2023-09-30T13:36:39;20.80;99.90
12460;DHT22;6295;49.452;8.466;2023-09-30T13:40:41;20.90;99.90
12460;DHT22;6295;49.452;8.466;2023-09-30T13:44:43;21.00;99.90
12460;DHT22;6295;49.452;8.466;2023-09-30T13:48:45;21.10;99.90
12460;DHT22;6295;49.452;8.466;2023-09-30T13:52:53;21.20;99.90
12460;DHT22;6295;49.452;8.466;2023-09-30T13:56:56;21.20;99.90
12460;DHT22;6295;49.452;8.466;2023-09-30T14:05:03;21.10;99.90
12460;DHT22;6295;49.452;8.466;2023-09-30T14:09:10;21.00;99.90
12460;DHT22;6295;49.452;8.466;2023-09-30T14:13:15;21.00;99.90
12460;DHT22;6295;49.452;8.466;2023-09-30T14:17:17;21.00;99.90
12460;DHT22;6295;49.452;8.466;2023-09-30T14:21:20;21.10;99.90
12460;DHT22;6295;49.452;8.466;2023-09-30T14:25:23;21.20;99.90
12460;DHT22;6295;49.452;8.466;2023-09-30T14:29:26;21.30;99.90
12460;DHT22;6295;49.452;8.466;2023-09-30T14:33:29;21.40;99.90
12460;DHT22;6295;49.452;8.466;2023-09-30T14:37:32;21.40;99.90
12460;DHT22;6295;49.452;8.466;2023-09-30T14:41:36;21.40;99.90
12460;DHT22;6295;49.452;8.466;2023-09-30T14:45:39;21.40;99.90
12460;DHT22;6295;49.452;8.466;2023-09-30T14:49:42;21.40;99.90
12460;DHT22;6295;49.452;8.466;2023-09-30T14:53:45;21.40;99.90
12460;DHT22;6295;49.452;8.466;2023-09-30T14:57:50;21.40;99.90
12460;DHT22;6295;49.452;8.466;2023-09-30T15:01:53;21.40;99.90
12460;DHT22;6295;49.452;8.466;2023-09-30T15:05:58;21.40;99.90
12460;DHT22;6295;49.452;8.466;2023-09-30T15:14:06;21.30;99.90
12460;DHT22;6295;49.452;8.466;2023-09-30T15:18:09;21.30;99.90
12460;DHT22;6295;49.452;8.466;2023-09-30T15:22:11;21.30;99.90
12460;DHT22;6295;49.452;8.466;2023-09-30T15:26:14;21.40;99.90
12460;DHT22;6295;49.452;8.466;2023-09-30T15:30:18;21.30;99.90
12460;DHT22;6295;49.452;8.466;2023-09-30T15:34:21;21.30;99.90
12460;DHT22;6295;49.452;8.466;2023-09-30T15:38:23;21.20;99.90
12460;DHT22;6295;49.452;8.466;2023-09-30T15:42:25;21.20;99.90
12460;DHT22;6295;49.452;8.466;2023-09-30T15:46:29;21.20;99.90
12460;DHT22;6295;49.452;8.466;2023-09-30T15:54:33;21.10;99.90
12460;DHT22;6295;49.452;8.466;2023-09-30T15:58:39;21.00;99.90
12460;DHT22;6295;49.452;8.466;2023-09-30T16:02:43;21.00;99.90
12460;DHT22;6295;49.452;8.466;2023-09-30T16:06:46;20.90;99.90
12460;DHT22;6295;49.452;8.466;2023-09-30T16:10:48;20.90;99.90
12460;DHT22;6295;49.452;8.466;2023-09-30T16:14:50;20.70;99.90
12460;DHT22;6295;49.452;8.466;2023-09-30T16:18:54;20.60;99.90
12460;DHT22;6295;49.452;8.466;2023-09-30T16:22:56;20.60;99.90
12460;DHT22;6295;49.452;8.466;2023-09-30T16:26:59;20.40;99.90
12460;DHT22;6295;49.452;8.466;2023-09-30T16:31:01;20.40;99.90
12460;DHT22;6295;49.452;8.466;2023-09-30T16:35:07;20.30;99.90
12460;DHT22;6295;49.452;8.466;2023-09-30T16:39:09;20.20;99.90
12460;DHT22;6295;49.452;8.466;2023-09-30T16:43:11;20.10;99.90
12460;DHT22;6295;49.452;8.466;2023-09-30T16:47:13;19.90;99.90
12460;DHT22;6295;49.452;8.466;2023-09-30T16:51:18;19.80;99.90
12460;DHT22;6295;49.452;8.466;2023-09-30T16:55:20;19.70;99.90
12460;DHT22;6295;49.452;8.466;2023-09-30T16:59:22;19.60;99.90
12460;DHT22;6295;49.452;8.466;2023-09-30T17:03:24;19.50;99.90
12460;DHT22;6295;49.452;8.466;2023-09-30T17:07:29;19.30;99.90
12460;DHT22;6295;49.452;8.466;2023-09-30T17:11:31;19.20;99.90
12460;DHT22;6295;49.452;8.466;2023-09-30T17:15:34;19.10;99.90
12460;DHT22;6295;49.452;8.466;2023-09-30T17:19:40;19.00;99.90
12460;DHT22;6295;49.452;8.466;2023-09-30T17:23:43;18.80;99.90
12460;DHT22;6295;49.452;8.466;2023-09-30T17:27:46;18.70;99.90
12460;DHT22;6295;49.452;8.466;2023-09-30T17:35:50;18.40;99.90
12460;DHT22;6295;49.452;8.466;2023-09-30T17:40:00;18.20;99.90
12460;DHT22;6295;49.452;8.466;2023-09-30T17:44:09;18.20;99.90
12460;DHT22;6295;49.452;8.466;2023-09-30T17:52:17;18.00;99.90
12460;DHT22;6295;49.452;8.466;2023-09-30T17:56:23;17.80;99.90
